Time;durP1;ratioP1;P1;durP2;ratioP2;P2;SDS_P1;SDS_P2;PMS_P1;PMS_P2;Temp;Humidity;BMP_temperature;BMP_pressure;BME280_temperature;BME280_humidity;BME280_pressure;Samples;Min_cycle;Max_cycle;Signal;HPM_P1;HPM_P2
2021/11/29 00:00:45;;;;;;;11.40;8.38;;;;;;;;;;5044532;28;20045;-56
2021/11/29 00:03:25;;;;;;;7.53;6.80;;;;;;;;;;5034787;28;20107;-58
2021/11/29 00:05:52;;;;;;;4.88;4.47;;;;;;;;;;5038696;28;20037;-57
2021/11/29 00:08:19;;;;;;;4.47;4.07;;;;;;;;;;5035215;28;20045;-57
2021/11/29 00:10:46;;;;;;;4.88;4.47;;;;;;;;;;5033471;28;20053;-56
2021/11/29 00:13:13;;;;;;;3.25;2.95;;;;;;;;;;5033674;28;20041;-58
2021/11/29 00:15:40;;;;;;;2.70;2.53;;;;;;;;;;5033245;28;20034;-57
2021/11/29 00:18:07;;;;;;;2.72;2.55;;;;;;;;;;5034129;28;20563;-58
2021/11/29 00:20:35;;;;;;;2.78;2.58;;;;;;;;;;5034159;28;20044;-59
2021/11/29 00:23:02;;;;;;;2.60;2.50;;;;;;;;;;5033579;28;20064;-57
2021/11/29 00:25:29;;;;;;;3.20;2.92;;;;;;;;;;5034627;28;20088;-56
2021/11/29 00:27:56;;;;;;;3.67;2.20;;;;;;;;;;5034660;28;20053;-58
2021/11/29 00:30:23;;;;;;;2.28;2.15;;;;;;;;;;5035000;28;20116;-57
2021/11/29 00:32:50;;;;;;;2.17;2.00;;;;;;;;;;5034663;28;20400;-53
2021/11/29 00:35:17;;;;;;;2.72;2.53;;;;;;;;;;5035010;28;20050;-57
2021/11/29 00:37:44;;;;;;;2.10;2.00;;;;;;;;;;5034070;28;20046;-58
2021/11/29 00:40:13;;;;;;;1.88;1.77;;;;;;;;;;5034816;28;20037;-58
2021/11/29 00:42:40;;;;;;;2.03;1.83;;;;;;;;;;5034351;28;20045;-58
2021/11/29 00:45:08;;;;;;;2.13;2.03;;;;;;;;;;5034752;28;20041;-58
2021/11/29 00:47:35;;;;;;;2.05;1.95;;;;;;;;;;5034721;28;20056;-59
2021/11/29 00:50:08;;;;;;;1.90;1.80;;;;;;;;;;5034596;28;20168;-57
2021/11/29 00:52:35;;;;;;;2.22;2.05;;;;;;;;;;5035071;28;20072;-60
2021/11/29 00:55:03;;;;;;;5.10;2.85;;;;;;;;;;5034212;28;20053;-60
2021/11/29 00:57:30;;;;;;;3.15;2.83;;;;;;;;;;5034496;28;20049;-60
2021/11/29 00:59:57;;;;;;;2.65;2.42;;;;;;;;;;5035085;28;20052;-59
2021/11/29 01:02:23;;;;;;;1.90;1.80;;;;;;;;;;5034657;28;20377;-60
2021/11/29 01:04:51;;;;;;;1.90;1.80;;;;;;;;;;5034079;28;20046;-61
2021/11/29 01:07:18;;;;;;;1.80;1.70;;;;;;;;;;5034601;28;20391;-56
2021/11/29 01:09:45;;;;;;;2.10;1.95;;;;;;;;;;5016694;28;20042;-60
2021/11/29 01:12:12;;;;;;;1.80;1.70;;;;;;;;;;5034082;28;20109;-60
2021/11/29 01:14:39;;;;;;;2.33;2.22;;;;;;;;;;5034547;28;20048;-58
2021/11/29 01:17:06;;;;;;;2.10;2.00;;;;;;;;;;5034118;28;20049;-58
2021/11/29 01:19:33;;;;;;;2.00;1.90;;;;;;;;;;5016794;28;20050;-58
2021/11/29 01:21:59;;;;;;;1.80;1.70;;;;;;;;;;5034255;28;20037;-58
2021/11/29 01:24:26;;;;;;;3.25;1.67;;;;;;;;;;5034178;28;20048;-58
2021/11/29 01:26:53;;;;;;;3.28;2.08;;;;;;;;;;5033587;28;20056;-59
2021/11/29 01:29:20;;;;;;;2.10;2.00;;;;;;;;;;5034054;28;20407;-60
2021/11/29 01:31:47;;;;;;;2.08;1.98;;;;;;;;;;5033858;28;20041;-60
2021/11/29 01:34:15;;;;;;;2.13;1.92;;;;;;;;;;5036025;28;20051;-60
2021/11/29 01:36:42;;;;;;;1.90;1.80;;;;;;;;;;5033876;28;20435;-60
2021/11/29 01:39:09;;;;;;;2.55;2.38;;;;;;;;;;5033318;28;20124;-60
2021/11/29 01:41:37;;;;;;;1.83;1.73;;;;;;;;;;5033680;28;20484;-58
2021/11/29 01:44:04;;;;;;;2.17;1.98;;;;;;;;;;5033197;28;20496;-59
2021/11/29 01:46:31;;;;;;;1.75;1.65;;;;;;;;;;5033689;28;20475;-59
2021/11/29 01:48:59;;;;;;;2.40;2.20;;;;;;;;;;5032796;28;20053;-59
2021/11/29 01:51:26;;;;;;;2.10;2.00;;;;;;;;;;5033738;28;20046;-59
2021/11/29 01:53:53;;;;;;;2.10;2.00;;;;;;;;;;5033052;28;20472;-59
2021/11/29 01:56:19;;;;;;;6.65;2.50;;;;;;;;;;5033425;28;20045;-60
2021/11/29 01:58:46;;;;;;;2.45;2.30;;;;;;;;;;5033301;28;20038;-60
2021/11/29 02:01:20;;;;;;;2.47;2.38;;;;;;;;;;5032864;28;20111;-59
2021/11/29 02:03:51;;;;;;;2.20;2.00;;;;;;;;;;5033453;28;20049;-58
2021/11/29 02:06:18;;;;;;;2.25;2.15;;;;;;;;;;5033307;28;20065;-60
2021/11/29 02:08:45;;;;;;;3.03;2.67;;;;;;;;;;5033163;28;20049;-59
2021/11/29 02:11:12;;;;;;;2.70;2.50;;;;;;;;;;5033207;28;20103;-58
2021/11/29 02:13:39;;;;;;;2.25;2.15;;;;;;;;;;5033576;28;20388;-59
2021/11/29 02:16:07;;;;;;;2.45;2.25;;;;;;;;;;5032674;28;20037;-59
2021/11/29 02:18:40;;;;;;;2.30;2.20;;;;;;;;;;5033300;28;20046;-59
2021/11/29 02:21:16;;;;;;;2.13;2.03;;;;;;;;;;5032745;28;20065;-59
2021/11/29 02:23:49;;;;;;;2.45;2.35;;;;;;;;;;5047847;28;20541;-59
2021/11/29 02:26:19;;;;;;;2.10;2.00;;;;;;;;;;5052292;28;20483;-59
2021/11/29 02:28:51;;;;;;;2.75;2.55;;;;;;;;;;5052729;28;20565;-59
2021/11/29 02:31:20;;;;;;;3.17;2.40;;;;;;;;;;5044926;28;20044;-59
2021/11/29 02:33:47;;;;;;;2.60;2.42;;;;;;;;;;5052285;28;20041;-59
2021/11/29 02:36:14;;;;;;;2.78;2.58;;;;;;;;;;5053016;28;20083;-58
2021/11/29 02:38:41;;;;;;;2.88;2.65;;;;;;;;;;5052127;28;20507;-59
2021/11/29 02:41:09;;;;;;;3.20;2.92;;;;;;;;;;5052712;28;20041;-59
2021/11/29 02:43:37;;;;;;;2.70;2.50;;;;;;;;;;5052569;28;20099;-59
2021/11/29 02:46:03;;;;;;;3.88;2.60;;;;;;;;;;5052630;28;20514;-58
2021/11/29 02:48:39;;;;;;;2.72;2.47;;;;;;;;;;5051910;28;20128;-58
2021/11/29 02:51:06;;;;;;;3.42;2.40;;;;;;;;;;5052880;28;20045;-59
2021/11/29 02:53:33;;;;;;;3.33;2.67;;;;;;;;;;5052069;28;20552;-58
2021/11/29 02:56:00;;;;;;;2.30;2.20;;;;;;;;;;5052443;28;20041;-57
2021/11/29 02:58:27;;;;;;;3.03;2.83;;;;;;;;;;5052354;28;20487;-56
2021/11/29 03:00:54;;;;;;;2.58;2.38;;;;;;;;;;5055616;28;20044;-58
2021/11/29 03:03:21;;;;;;;2.55;2.35;;;;;;;;;;5056345;28;20045;-58
2021/11/29 03:05:48;;;;;;;2.78;2.58;;;;;;;;;;5056073;28;20428;-59
2021/11/29 03:08:15;;;;;;;2.42;2.33;;;;;;;;;;5056174;28;20068;-59
2021/11/29 03:10:42;;;;;;;2.33;2.13;;;;;;;;;;5052770;28;20048;-58
2021/11/29 03:13:09;;;;;;;2.55;2.35;;;;;;;;;;5056342;28;20516;-59
2021/11/29 03:15:36;;;;;;;2.10;2.00;;;;;;;;;;5055735;28;20048;-57
2021/11/29 03:18:03;;;;;;;2.40;2.20;;;;;;;;;;5039121;28;20369;-58
2021/11/29 03:20:30;;;;;;;2.30;2.10;;;;;;;;;;5056145;28;20422;-58
2021/11/29 03:22:57;;;;;;;2.38;2.28;;;;;;;;;;5055997;28;20037;-59
2021/11/29 03:25:24;;;;;;;2.78;2.50;;;;;;;;;;5056278;28;20051;-58
2021/11/29 03:27:50;;;;;;;2.00;1.90;;;;;;;;;;5055869;28;20033;-58
2021/11/29 03:30:17;;;;;;;2.63;1.80;;;;;;;;;;5055961;28;20049;-58
2021/11/29 03:32:44;;;;;;;2.08;1.98;;;;;;;;;;5056041;28;20045;-57
2021/11/29 03:35:11;;;;;;;1.90;1.80;;;;;;;;;;5055788;28;20053;-59
2021/11/29 03:37:38;;;;;;;2.00;1.90;;;;;;;;;;5055475;28;20491;-59
2021/11/29 03:40:06;;;;;;;2.13;2.03;;;;;;;;;;5038307;28;20052;-58
2021/11/29 03:42:33;;;;;;;2.65;2.45;;;;;;;;;;5055203;28;20499;-57
2021/11/29 03:45:02;;;;;;;1.90;1.80;;;;;;;;;;5055738;28;20045;-58
2021/11/29 03:47:29;;;;;;;2.03;1.92;;;;;;;;;;5055439;28;20037;-58
2021/11/29 03:49:56;;;;;;;2.38;2.28;;;;;;;;;;5051949;28;20037;-59
2021/11/29 03:52:23;;;;;;;2.10;2.00;;;;;;;;;;5055630;28;20078;-58
2021/11/29 03:54:52;;;;;;;2.05;1.95;;;;;;;;;;5055309;28;20049;-57
2021/11/29 03:57:19;;;;;;;1.92;1.83;;;;;;;;;;5055448;28;20041;-58
2021/11/29 03:59:46;;;;;;;1.85;1.75;;;;;;;;;;5055436;28;20128;-58
2021/11/29 04:02:13;;;;;;;2.00;1.90;;;;;;;;;;5055053;28;20099;-58
2021/11/29 04:04:40;;;;;;;2.05;1.95;;;;;;;;;;5054635;28;20140;-59
2021/11/29 04:07:07;;;;;;;2.10;1.70;;;;;;;;;;5055008;28;20040;-59
2021/11/29 04:09:34;;;;;;;2.15;1.95;;;;;;;;;;5055341;28;20450;-57
2021/11/29 04:12:02;;;;;;;2.30;2.20;;;;;;;;;;5054173;28;20501;-57
2021/11/29 04:14:29;;;;;;;2.80;2.60;;;;;;;;;;5052973;28;20062;-59
2021/11/29 04:16:57;;;;;;;2.60;2.40;;;;;;;;;;5054946;28;20048;-59
2021/11/29 04:19:24;;;;;;;2.33;2.13;;;;;;;;;;5055247;28;20075;-58
2021/11/29 04:21:51;;;;;;;2.35;2.00;;;;;;;;;;5054750;28;20091;-60
2021/11/29 04:24:18;;;;;;;2.30;2.10;;;;;;;;;;5054810;28;20041;-57
2021/11/29 04:26:51;;;;;;;2.63;2.42;;;;;;;;;;5054837;28;20049;-59
2021/11/29 04:29:22;;;;;;;2.65;2.45;;;;;;;;;;5055343;28;20060;-59
2021/11/29 04:31:49;;;;;;;2.20;2.10;;;;;;;;;;5054723;28;20066;-60
2021/11/29 04:34:16;;;;;;;2.15;2.05;;;;;;;;;;5055057;28;20048;-55
2021/11/29 04:36:43;;;;;;;2.25;2.05;;;;;;;;;;5054857;28;20407;-59
2021/11/29 04:39:10;;;;;;;2.85;2.67;;;;;;;;;;5054656;28;20049;-59
2021/11/29 04:41:37;;;;;;;2.33;2.17;;;;;;;;;;5050976;28;20099;-59
2021/11/29 04:44:06;;;;;;;2.78;2.58;;;;;;;;;;5053998;28;20049;-59
2021/11/29 04:46:34;;;;;;;2.47;2.38;;;;;;;;;;5054461;28;20045;-59
2021/11/29 04:49:01;;;;;;;2.30;2.20;;;;;;;;;;5054251;28;20080;-57
2021/11/29 04:51:28;;;;;;;2.58;2.38;;;;;;;;;;5054570;28;20052;-59
2021/11/29 04:53:55;;;;;;;2.90;2.10;;;;;;;;;;5054014;28;20041;-58
2021/11/29 04:56:22;;;;;;;2.35;2.13;;;;;;;;;;5054760;28;20049;-60
2021/11/29 04:58:49;;;;;;;2.08;1.98;;;;;;;;;;5054117;28;20041;-59
2021/11/29 05:01:16;;;;;;;2.50;2.30;;;;;;;;;;5054379;28;20052;-59
2021/11/29 05:03:43;;;;;;;2.30;2.20;;;;;;;;;;5054121;28;20045;-59
2021/11/29 05:06:10;;;;;;;2.35;2.15;;;;;;;;;;5054090;28;20136;-59
2021/11/29 05:08:38;;;;;;;2.20;2.10;;;;;;;;;;5054301;28;20067;-58
2021/11/29 05:11:05;;;;;;;2.60;2.38;;;;;;;;;;5038835;28;20038;-57
2021/11/29 05:13:32;;;;;;;4.20;3.42;;;;;;;;;;5034585;28;20103;-57
2021/11/29 05:15:59;;;;;;;3.90;3.60;;;;;;;;;;5034373;28;20046;-58
2021/11/29 05:18:26;;;;;;;5.85;4.93;;;;;;;;;;5034588;28;20050;-59
2021/11/29 05:20:53;;;;;;;4.88;4.15;;;;;;;;;;5034041;28;20117;-60
2021/11/29 05:23:20;;;;;;;44.22;5.22;;;;;;;;;;5032775;28;20041;-59
2021/11/29 05:25:47;;;;;;;5.38;4.78;;;;;;;;;;5034192;28;20044;-58
2021/11/29 05:28:15;;;;;;;8.48;4.10;;;;;;;;;;5035134;28;20048;-59
2021/11/29 05:30:42;;;;;;;8.35;4.40;;;;;;;;;;5045217;28;20453;-60
2021/11/29 05:33:09;;;;;;;6.35;4.35;;;;;;;;;;5046274;28;20052;-54
2021/11/29 05:35:37;;;;;;;3.33;3.00;;;;;;;;;;5046311;28;20403;-49
2021/11/29 05:38:04;;;;;;;3.42;3.13;;;;;;;;;;5048868;28;20049;-53
2021/11/29 05:40:31;;;;;;;3.83;3.42;;;;;;;;;;5040633;28;20072;-51
2021/11/29 05:42:59;;;;;;;5.20;4.63;;;;;;;;;;5043124;28;20041;-54
2021/11/29 05:45:26;;;;;;;7.03;5.72;;;;;;;;;;5047057;28;20120;-50
2021/11/29 05:47:54;;;;;;;6.53;4.95;;;;;;;;;;5047950;28;20041;-55
2021/11/29 05:50:22;;;;;;;7.55;6.47;;;;;;;;;;5043138;28;20041;-55
2021/11/29 05:52:49;;;;;;;5.32;4.80;;;;;;;;;;5047005;28;20411;-54
2021/11/29 05:55:16;;;;;;;3.95;3.53;;;;;;;;;;5047585;28;20051;-55
2021/11/29 05:57:44;;;;;;;4.40;4.00;;;;;;;;;;5043121;28;20044;-56
2021/11/29 06:00:16;;;;;;;7.32;4.50;;;;;;;;;;5051717;28;20056;-50
2021/11/29 06:02:43;;;;;;;4.50;4.10;;;;;;;;;;5044556;28;20033;-55
2021/11/29 06:05:11;;;;;;;5.18;4.32;;;;;;;;;;5044417;28;20069;-56
2021/11/29 06:07:39;;;;;;;5.47;4.70;;;;;;;;;;5047682;28;20054;-55
2021/11/29 06:10:07;;;;;;;5.30;4.80;;;;;;;;;;5037401;28;20044;-55
2021/11/29 06:12:35;;;;;;;4.95;4.55;;;;;;;;;;5027605;28;20435;-50
2021/11/29 06:15:04;;;;;;;6.70;5.72;;;;;;;;;;5046287;28;20215;-55
2021/11/29 06:17:31;;;;;;;8.68;5.57;;;;;;;;;;5037018;28;20060;-55
2021/11/29 06:19:58;;;;;;;12.48;9.40;;;;;;;;;;5040315;28;20069;-56
2021/11/29 06:22:25;;;;;;;7.85;6.57;;;;;;;;;;5044415;28;20434;-56
2021/11/29 06:24:52;;;;;;;10.07;6.38;;;;;;;;;;5043312;28;20492;-56
2021/11/29 06:27:19;;;;;;;10.38;7.15;;;;;;;;;;5039984;28;20116;-58
2021/11/29 06:29:46;;;;;;;8.43;6.32;;;;;;;;;;5039045;28;20082;-56
2021/11/29 06:32:15;;;;;;;8.00;6.88;;;;;;;;;;5037180;28;20033;-51
2021/11/29 06:34:43;;;;;;;9.15;6.78;;;;;;;;;;5041306;28;20052;-51
2021/11/29 06:37:11;;;;;;;9.55;7.72;;;;;;;;;;5038677;28;20037;-54
2021/11/29 06:39:39;;;;;;;8.43;6.95;;;;;;;;;;5021286;28;20098;-58
2021/11/29 06:42:07;;;;;;;9.00;8.10;;;;;;;;;;5043589;28;20037;-57
2021/11/29 06:44:36;;;;;;;8.45;7.15;;;;;;;;;;5036467;28;20044;-57
2021/11/29 06:47:03;;;;;;;8.65;7.75;;;;;;;;;;5044135;28;20106;-56
2021/11/29 06:49:30;;;;;;;9.00;7.25;;;;;;;;;;5037482;28;20057;-56
2021/11/29 06:51:58;;;;;;;8.57;7.20;;;;;;;;;;5024248;28;20571;-50
2021/11/29 06:54:25;;;;;;;11.02;7.75;;;;;;;;;;5033512;28;20052;-55
2021/11/29 06:56:53;;;;;;;8.98;7.93;;;;;;;;;;5041300;28;20072;-52
2021/11/29 06:59:21;;;;;;;8.63;7.53;;;;;;;;;;5036455;28;20124;-49
2021/11/29 07:01:48;;;;;;;9.18;8.15;;;;;;;;;;5040472;28;20101;-51
2021/11/29 07:04:19;;;;;;;9.00;8.10;;;;;;;;;;5035544;28;20445;-53
2021/11/29 07:06:47;;;;;;;9.73;8.77;;;;;;;;;;5037018;28;20381;-55
2021/11/29 07:09:14;;;;;;;8.77;7.93;;;;;;;;;;5014393;28;20076;-53
2021/11/29 07:11:41;;;;;;;9.80;8.80;;;;;;;;;;5031958;28;20041;-54
2021/11/29 07:14:08;;;;;;;8.25;7.45;;;;;;;;;;5032694;28;20100;-48
2021/11/29 07:16:36;;;;;;;9.85;8.25;;;;;;;;;;5032107;28;20496;-54
2021/11/29 07:19:05;;;;;;;10.48;8.80;;;;;;;;;;5032008;28;20076;-49
2021/11/29 07:21:32;;;;;;;8.25;6.82;;;;;;;;;;5032196;28;20044;-50
2021/11/29 07:23:59;;;;;;;9.98;6.47;;;;;;;;;;5031947;28;20499;-48
2021/11/29 07:26:26;;;;;;;6.70;6.10;;;;;;;;;;5032353;28;20042;-53
2021/11/29 07:28:52;;;;;;;7.28;6.55;;;;;;;;;;5031862;28;20488;-53
2021/11/29 07:31:20;;;;;;;7.47;6.78;;;;;;;;;;5039874;28;20037;-54
2021/11/29 07:33:47;;;;;;;7.85;6.47;;;;;;;;;;5050407;28;20099;-48
2021/11/29 07:36:14;;;;;;;9.95;6.60;;;;;;;;;;5044045;28;20041;-49
2021/11/29 07:38:41;;;;;;;15.32;10.90;;;;;;;;;;5048179;28;20037;-50
2021/11/29 07:41:08;;;;;;;9.10;7.82;;;;;;;;;;5045608;28;20037;-50
2021/11/29 07:43:35;;;;;;;7.57;6.78;;;;;;;;;;5047065;28;20450;-52
2021/11/29 07:46:02;;;;;;;8.52;7.22;;;;;;;;;;5043135;28;20080;-55
2021/11/29 07:48:30;;;;;;;8.57;7.60;;;;;;;;;;5050621;28;20038;-51
2021/11/29 07:50:57;;;;;;;10.32;7.43;;;;;;;;;;5041214;28;20073;-57
2021/11/29 07:53:24;;;;;;;10.85;9.07;;;;;;;;;;5049504;28;20034;-50
2021/11/29 07:55:53;;;;;;;12.32;10.20;;;;;;;;;;5050268;28;20449;-53
2021/11/29 07:58:21;;;;;;;12.13;10.45;;;;;;;;;;5051976;28;20046;-53
2021/11/29 08:00:49;;;;;;;11.95;9.00;;;;;;;;;;5051326;28;20044;-49
2021/11/29 08:03:26;;;;;;;11.20;8.63;;;;;;;;;;5052180;28;20091;-49
2021/11/29 08:06:33;;;;;;;9.82;8.80;;;;;;;;;;5048731;28;20434;-50
2021/11/29 08:09:08;;;;;;;13.02;7.78;;;;;;;;;;5049675;28;20045;-57
2021/11/29 08:11:36;;;;;;;12.43;9.35;;;;;;;;;;5051295;28;20033;-50
2021/11/29 08:14:02;;;;;;;11.32;9.75;;;;;;;;;;5052355;28;20041;-53
2021/11/29 08:16:29;;;;;;;11.60;10.40;;;;;;;;;;5050648;28;20048;-58
2021/11/29 08:18:56;;;;;;;16.13;10.88;;;;;;;;;;5051871;28;20045;-60
2021/11/29 08:21:42;;;;;;;11.05;9.07;;;;;;;;;;5048044;28;20040;-53
2021/11/29 08:24:10;;;;;;;13.50;11.98;;;;;;;;;;5042164;28;20069;-49
2021/11/29 08:26:38;;;;;;;15.52;10.90;;;;;;;;;;5043118;28;20491;-58
2021/11/29 08:29:05;;;;;;;12.02;10.80;;;;;;;;;;5039275;28;20050;-59
2021/11/29 08:31:31;;;;;;;16.10;11.07;;;;;;;;;;5038873;28;20049;-60
2021/11/29 08:33:59;;;;;;;10.88;9.65;;;;;;;;;;5042106;28;20037;-60
2021/11/29 08:36:26;;;;;;;16.95;12.30;;;;;;;;;;5039750;28;20055;-55
2021/11/29 08:38:53;;;;;;;18.08;9.35;;;;;;;;;;5044780;28;20049;-58
2021/11/29 08:41:21;;;;;;;7.95;7.00;;;;;;;;;;5043975;28;20029;-58
2021/11/29 08:43:48;;;;;;;8.30;7.25;;;;;;;;;;5040704;28;20045;-58
2021/11/29 08:46:16;;;;;;;8.20;7.22;;;;;;;;;;5042227;28;20044;-58
2021/11/29 08:48:43;;;;;;;8.52;6.35;;;;;;;;;;5043135;28;20045;-58
2021/11/29 08:51:10;;;;;;;8.70;6.75;;;;;;;;;;5041172;28;20399;-60
2021/11/29 08:53:38;;;;;;;9.45;6.88;;;;;;;;;;5043247;28;20064;-58
2021/11/29 08:56:05;;;;;;;8.27;7.50;;;;;;;;;;5039949;28;20091;-55
2021/11/29 08:58:34;;;;;;;8.13;6.32;;;;;;;;;;5043320;28;20041;-56
2021/11/29 09:01:01;;;;;;;7.05;5.72;;;;;;;;;;5045119;28;20128;-58
2021/11/29 09:03:29;;;;;;;8.25;6.38;;;;;;;;;;5040380;28;20036;-59
2021/11/29 09:05:57;;;;;;;9.55;6.70;;;;;;;;;;5042786;28;20041;-60
2021/11/29 09:08:25;;;;;;;7.45;6.32;;;;;;;;;;5041592;28;20041;-60
2021/11/29 09:10:52;;;;;;;9.85;6.00;;;;;;;;;;5043300;28;20067;-60
2021/11/29 09:13:41;;;;;;;6.82;6.13;;;;;;;;;;5040077;28;20087;-60
2021/11/29 09:16:10;;;;;;;6.95;5.90;;;;;;;;;;5042820;28;20503;-58
2021/11/29 09:18:39;;;;;;;7.30;6.50;;;;;;;;;;5038321;28;20071;-58
2021/11/29 09:21:06;;;;;;;7.00;6.18;;;;;;;;;;5037778;28;20045;-57
2021/11/29 09:23:34;;;;;;;6.85;6.18;;;;;;;;;;5040399;28;20045;-56
2021/11/29 09:26:01;;;;;;;7.90;6.30;;;;;;;;;;5040258;28;20041;-56
2021/11/29 09:28:29;;;;;;;7.03;6.32;;;;;;;;;;5043835;28;20556;-57
2021/11/29 09:30:56;;;;;;;7.22;6.53;;;;;;;;;;5041391;28;20055;-58
2021/11/29 09:33:23;;;;;;;7.70;6.90;;;;;;;;;;5043670;28;20041;-57
2021/11/29 09:35:51;;;;;;;9.82;7.45;;;;;;;;;;5044443;28;20048;-58
2021/11/29 09:38:18;;;;;;;12.18;8.60;;;;;;;;;;5039734;28;20083;-61
2021/11/29 09:40:47;;;;;;;15.35;10.43;;;;;;;;;;5040997;28;20048;-59
2021/11/29 09:43:16;;;;;;;13.32;8.43;;;;;;;;;;5047604;28;20045;-60
2021/11/29 09:45:45;;;;;;;9.55;6.82;;;;;;;;;;5044439;28;20044;-60
2021/11/29 09:48:13;;;;;;;7.40;6.22;;;;;;;;;;5036763;28;20044;-59
2021/11/29 09:50:45;;;;;;;7.78;6.28;;;;;;;;;;5043831;28;20040;-60
2021/11/29 09:53:14;;;;;;;7.05;5.82;;;;;;;;;;5036866;28;20045;-58
2021/11/29 09:55:42;;;;;;;6.15;5.35;;;;;;;;;;5035982;28;20038;-59
2021/11/29 09:58:09;;;;;;;7.32;4.78;;;;;;;;;;5037221;28;20045;-59
2021/11/29 10:00:46;;;;;;;6.72;6.03;;;;;;;;;;5036473;28;20052;-59
2021/11/29 10:03:15;;;;;;;8.68;6.22;;;;;;;;;;5037729;28;20037;-60
2021/11/29 10:05:42;;;;;;;10.35;5.80;;;;;;;;;;5037765;28;20079;-61
2021/11/29 10:08:29;;;;;;;7.13;5.72;;;;;;;;;;5035556;28;20037;-60
2021/11/29 10:11:17;;;;;;;5.45;4.95;;;;;;;;;;5040813;28;20037;-59
2021/11/29 10:13:46;;;;;;;6.65;4.65;;;;;;;;;;5038718;28;20124;-58
2021/11/29 10:16:28;;;;;;;6.25;4.78;;;;;;;;;;5044150;28;20041;-58
2021/11/29 10:18:56;;;;;;;8.60;5.63;;;;;;;;;;5041470;28;20048;-58
2021/11/29 10:21:23;;;;;;;9.82;5.80;;;;;;;;;;5037435;28;20091;-57
2021/11/29 10:23:53;;;;;;;12.48;8.80;;;;;;;;;;5046209;28;20430;-56
2021/11/29 10:26:24;;;;;;;7.05;5.43;;;;;;;;;;5041028;28;20052;-60
2021/11/29 10:28:59;;;;;;;5.32;4.82;;;;;;;;;;5039768;28;20427;-55
2021/11/29 10:31:56;;;;;;;6.10;4.25;;;;;;;;;;5039055;28;21001;-57
2021/11/29 10:34:27;;;;;;;4.80;4.13;;;;;;;;;;5029112;28;20048;-49
2021/11/29 10:36:55;;;;;;;5.88;4.53;;;;;;;;;;5038493;28;20041;-49
2021/11/29 10:39:28;;;;;;;5.07;3.90;;;;;;;;;;5040049;28;20060;-50
2021/11/29 10:41:58;;;;;;;8.18;4.53;;;;;;;;;;5042256;28;20069;-52
2021/11/29 10:44:31;;;;;;;5.65;4.50;;;;;;;;;;5036791;28;20045;-55
2021/11/29 10:47:02;;;;;;;5.65;4.30;;;;;;;;;;5036713;28;20044;-55
2021/11/29 10:49:32;;;;;;;4.60;4.20;;;;;;;;;;5041362;28;20041;-57
2021/11/29 10:52:01;;;;;;;9.95;4.75;;;;;;;;;;5039032;28;20065;-57
2021/11/29 10:54:31;;;;;;;7.95;6.13;;;;;;;;;;5041228;28;20034;-57
2021/11/29 10:57:00;;;;;;;5.50;5.00;;;;;;;;;;5034988;28;20037;-57
2021/11/29 10:59:32;;;;;;;6.00;5.40;;;;;;;;;;5036886;28;20049;-58
2021/11/29 11:02:18;;;;;;;7.70;4.90;;;;;;;;;;5024056;28;20045;-58
2021/11/29 11:05:01;;;;;;;5.18;4.68;;;;;;;;;;5046386;28;20041;-57
2021/11/29 11:07:33;;;;;;;5.10;4.60;;;;;;;;;;5045446;28;20049;-58
2021/11/29 11:10:00;;;;;;;4.60;3.83;;;;;;;;;;5047561;28;20434;-55
2021/11/29 11:12:33;;;;;;;6.28;5.30;;;;;;;;;;5045034;28;20037;-53
2021/11/29 11:15:04;;;;;;;5.15;4.57;;;;;;;;;;5041989;28;20041;-56
2021/11/29 11:17:53;;;;;;;9.60;5.53;;;;;;;;;;5047343;28;20095;-54
2021/11/29 11:20:20;;;;;;;8.30;6.35;;;;;;;;;;5048688;28;20049;-54
2021/11/29 11:22:51;;;;;;;7.80;6.60;;;;;;;;;;5048606;28;20045;-54
2021/11/29 11:25:22;;;;;;;8.30;7.45;;;;;;;;;;5044682;28;20124;-54
2021/11/29 11:27:58;;;;;;;7.13;6.40;;;;;;;;;;5051875;28;20048;-58
2021/11/29 11:30:28;;;;;;;10.57;7.40;;;;;;;;;;5050775;28;20502;-58
2021/11/29 11:33:02;;;;;;;9.75;8.40;;;;;;;;;;5053464;28;20107;-53
2021/11/29 11:35:32;;;;;;;13.55;8.32;;;;;;;;;;5053734;28;20128;-56
2021/11/29 11:38:05;;;;;;;8.27;6.50;;;;;;;;;;5048269;28;20041;-57
2021/11/29 11:40:42;;;;;;;13.93;7.38;;;;;;;;;;5041996;28;20045;-55
2021/11/29 11:43:12;;;;;;;9.43;7.65;;;;;;;;;;5051346;28;20434;-54
2021/11/29 11:45:41;;;;;;;8.27;7.47;;;;;;;;;;5046584;28;20399;-60
2021/11/29 11:48:10;;;;;;;8.52;6.78;;;;;;;;;;5048784;28;20372;-57
2021/11/29 11:50:44;;;;;;;13.07;7.95;;;;;;;;;;5029083;28;20552;-59
2021/11/29 11:53:11;;;;;;;12.27;6.95;;;;;;;;;;5049091;28;20049;-58
2021/11/29 11:55:42;;;;;;;9.27;5.63;;;;;;;;;;5043983;28;20434;-58
2021/11/29 11:58:17;;;;;;;13.43;6.88;;;;;;;;;;5052034;28;20088;-58
2021/11/29 12:00:45;;;;;;;9.55;7.03;;;;;;;;;;5022568;28;20045;-59
2021/11/29 12:03:18;;;;;;;10.45;7.05;;;;;;;;;;5030261;28;20119;-59
2021/11/29 12:05:54;;;;;;;8.00;6.07;;;;;;;;;;5013718;28;20050;-58
2021/11/29 12:08:48;;;;;;;8.43;5.35;;;;;;;;;;5030649;28;20076;-58
2021/11/29 12:11:27;;;;;;;;;;;;;;;;;;5031509;28;20539;-57
2021/11/29 12:14:08;;;;;;;14.45;6.38;;;;;;;;;;5044638;28;19928;-59
2021/11/29 12:16:43;;;;;;;8.38;6.65;;;;;;;;;;5051518;28;20049;-59
2021/11/29 12:19:26;;;;;;;8.75;5.95;;;;;;;;;;5051645;28;20055;-59
2021/11/29 12:21:56;;;;;;;10.15;6.32;;;;;;;;;;5052419;28;20499;-59
2021/11/29 12:24:35;;;;;;;5.93;5.32;;;;;;;;;;5052064;28;20048;-59
2021/11/29 12:27:04;;;;;;;6.55;4.25;;;;;;;;;;5052713;28;20041;-58
2021/11/29 12:29:31;;;;;;;7.00;4.78;;;;;;;;;;5054103;28;20063;-58
2021/11/29 12:32:04;;;;;;;7.60;4.53;;;;;;;;;;5053699;28;20048;-58
2021/11/29 12:37:20;;;;;;;4.97;4.47;;;;;;;;;;5054901;28;20135;-58
2021/11/29 12:39:47;;;;;;;5.93;4.28;;;;;;;;;;5054110;28;20047;-58
2021/11/29 12:42:23;;;;;;;5.07;4.57;;;;;;;;;;5054244;28;20442;-58
2021/11/29 12:44:58;;;;;;;5.82;4.88;;;;;;;;;;5054258;28;20041;-58
2021/11/29 12:47:26;;;;;;;6.60;3.97;;;;;;;;;;5054896;28;20064;-58
2021/11/29 12:49:58;;;;;;;6.00;4.65;;;;;;;;;;5054542;28;20398;-59
2021/11/29 12:52:38;;;;;;;3.75;3.35;;;;;;;;;;5054067;28;20517;-59
2021/11/29 12:55:29;;;;;;;3.30;2.90;;;;;;;;;;5054556;28;20049;-57
2021/11/29 12:58:18;;;;;;;3.80;2.58;;;;;;;;;;5034352;28;20046;-58
2021/11/29 13:00:52;;;;;;;4.70;2.83;;;;;;;;;;5044293;28;20041;-56
2021/11/29 13:03:29;;;;;;;5.32;3.80;;;;;;;;;;5054744;28;20045;-58
2021/11/29 13:05:57;;;;;;;6.53;3.30;;;;;;;;;;5034444;28;20053;-58
2021/11/29 13:08:30;;;;;;;3.00;2.70;;;;;;;;;;5034130;28;20369;-55
2021/11/29 13:11:11;;;;;;;3.88;3.30;;;;;;;;;;5034475;28;20049;-58
2021/11/29 13:13:38;;;;;;;6.55;3.28;;;;;;;;;;5041796;28;20059;-56
2021/11/29 13:16:09;;;;;;;3.42;3.13;;;;;;;;;;5034289;28;20045;-56
2021/11/29 13:19:02;;;;;;;11.73;4.55;;;;;;;;;;5033771;28;20124;-57
2021/11/29 13:21:30;;;;;;;4.88;2.95;;;;;;;;;;5005763;28;20056;-54
2021/11/29 13:24:03;;;;;;;6.57;4.75;;;;;;;;;;5033643;28;20496;-56
2021/11/29 13:26:34;;;;;;;3.13;2.83;;;;;;;;;;5034222;28;20049;-59
2021/11/29 13:29:06;;;;;;;2.97;2.63;;;;;;;;;;5033710;28;20045;-58
2021/11/29 13:31:36;;;;;;;3.85;3.45;;;;;;;;;;5034170;28;20381;-58
2021/11/29 13:34:08;;;;;;;8.93;4.05;;;;;;;;;;5033790;28;20046;-58
2021/11/29 13:36:42;;;;;;;4.40;3.00;;;;;;;;;;5034110;28;20041;-59
2021/11/29 13:39:13;;;;;;;2.72;2.53;;;;;;;;;;5033520;28;20072;-59
2021/11/29 13:41:42;;;;;;;4.88;3.28;;;;;;;;;;5033497;28;20045;-59
2021/11/29 13:44:26;;;;;;;5.95;3.22;;;;;;;;;;5032603;28;20137;-58
2021/11/29 13:47:02;;;;;;;6.53;2.80;;;;;;;;;;5033977;28;20049;-59
2021/11/29 13:49:33;;;;;;;3.42;3.13;;;;;;;;;;5033908;28;20120;-59
2021/11/29 13:52:01;;;;;;;3.65;2.65;;;;;;;;;;5052398;28;20040;-59
2021/11/29 13:54:28;;;;;;;3.33;2.67;;;;;;;;;;5053150;28;20041;-60
2021/11/29 13:56:55;;;;;;;2.88;2.55;;;;;;;;;;5053151;28;20044;-59
2021/11/29 13:59:22;;;;;;;3.78;2.63;;;;;;;;;;5052899;28;20052;-59
2021/11/29 14:01:49;;;;;;;3.47;2.85;;;;;;;;;;5052826;28;20052;-59
2021/11/29 14:04:20;;;;;;;2.92;2.33;;;;;;;;;;5034623;28;20048;-59
2021/11/29 14:06:47;;;;;;;4.82;3.15;;;;;;;;;;5052753;28;20041;-59
2021/11/29 14:09:18;;;;;;;3.80;3.17;;;;;;;;;;5052909;28;20045;-59
2021/11/29 14:11:46;;;;;;;3.60;2.78;;;;;;;;;;5052401;28;20057;-59
2021/11/29 14:14:15;;;;;;;6.22;3.22;;;;;;;;;;5035393;28;20037;-59
2021/11/29 14:16:43;;;;;;;5.55;3.42;;;;;;;;;;5052674;28;20037;-59
2021/11/29 14:19:12;;;;;;;3.67;3.10;;;;;;;;;;5052971;28;20476;-59
2021/11/29 14:21:47;;;;;;;4.38;2.78;;;;;;;;;;5053055;28;20119;-58
2021/11/29 14:24:20;;;;;;;4.93;3.92;;;;;;;;;;5052683;28;20124;-58
2021/11/29 14:26:55;;;;;;;5.90;3.40;;;;;;;;;;5052816;28;20041;-58
2021/11/29 14:29:27;;;;;;;4.70;3.53;;;;;;;;;;5052191;28;20037;-59
2021/11/29 14:32:06;;;;;;;3.90;3.53;;;;;;;;;;5035101;28;20040;-59
2021/11/29 14:34:36;;;;;;;4.00;3.58;;;;;;;;;;5045293;28;20037;-58
2021/11/29 14:37:11;;;;;;;5.72;3.20;;;;;;;;;;5032648;28;20389;-59
2021/11/29 14:39:45;;;;;;;5.03;4.57;;;;;;;;;;5032580;28;20041;-59
2021/11/29 14:42:23;;;;;;;5.60;3.45;;;;;;;;;;5032594;28;20052;-55
2021/11/29 14:44:56;;;;;;;6.15;3.67;;;;;;;;;;5032282;28;20056;-58
2021/11/29 14:47:26;;;;;;;4.85;3.65;;;;;;;;;;5032995;28;20113;-57
2021/11/29 14:50:17;;;;;;;5.20;4.13;;;;;;;;;;5032327;28;20045;-53
2021/11/29 14:53:07;;;;;;;4.43;4.03;;;;;;;;;;5032500;28;20053;-58
2021/11/29 14:55:37;;;;;;;4.80;4.05;;;;;;;;;;5032044;28;20507;-54
2021/11/29 14:58:09;;;;;;;6.28;3.85;;;;;;;;;;5032574;28;20499;-57